sensor_id;sensor_type;location;lat;lon;timestamp;P1;durP1;ratioP1;P2;durP2;ratioP2
5559;SDS011;2803;47.916;8.074;2022-12-01T00:00:43;11.00;;;6.17;;
5559;SDS011;2803;47.916;8.074;2022-12-01T00:03:09;11.03;;;6.60;;
5559;SDS011;2803;47.916;8.074;2022-12-01T00:05:36;11.40;;;5.97;;
5559;SDS011;2803;47.916;8.074;2022-12-01T00:08:03;11.90;;;5.90;;
5559;SDS011;2803;47.916;8.074;2022-12-01T00:10:30;15.17;;;5.80;;
5559;SDS011;2803;47.916;8.074;2022-12-01T00:13:00;12.33;;;5.60;;
5559;SDS011;2803;47.916;8.074;2022-12-01T00:15:29;9.90;;;5.30;;
5559;SDS011;2803;47.916;8.074;2022-12-01T00:17:58;8.90;;;4.90;;
5559;SDS011;2803;47.916;8.074;2022-12-01T00:20:25;8.97;;;5.07;;
5559;SDS011;2803;47.916;8.074;2022-12-01T00:22:53;13.20;;;5.27;;
5559;SDS011;2803;47.916;8.074;2022-12-01T00:25:20;9.93;;;5.30;;
5559;SDS011;2803;47.916;8.074;2022-12-01T00:27:47;8.70;;;5.40;;
5559;SDS011;2803;47.916;8.074;2022-12-01T00:30:16;7.87;;;4.33;;
5559;SDS011;2803;47.916;8.074;2022-12-01T00:32:44;6.90;;;4.80;;
5559;SDS011;2803;47.916;8.074;2022-12-01T00:35:11;8.50;;;5.07;;
5559;SDS011;2803;47.916;8.074;2022-12-01T00:37:39;7.60;;;4.80;;
5559;SDS011;2803;47.916;8.074;2022-12-01T00:40:06;12.20;;;6.10;;
5559;SDS011;2803;47.916;8.074;2022-12-01T00:42:34;11.00;;;5.13;;
5559;SDS011;2803;47.916;8.074;2022-12-01T00:45:00;9.27;;;5.63;;
5559;SDS011;2803;47.916;8.074;2022-12-01T00:47:28;12.90;;;5.50;;
5559;SDS011;2803;47.916;8.074;2022-12-01T00:49:55;9.40;;;5.73;;
5559;SDS011;2803;47.916;8.074;2022-12-01T00:52:21;10.30;;;5.40;;
5559;SDS011;2803;47.916;8.074;2022-12-01T00:54:48;8.20;;;4.63;;
5559;SDS011;2803;47.916;8.074;2022-12-01T00:57:15;7.70;;;5.30;;
5559;SDS011;2803;47.916;8.074;2022-12-01T00:59:41;11.03;;;5.30;;
5559;SDS011;2803;47.916;8.074;2022-12-01T01:02:08;7.73;;;5.07;;
5559;SDS011;2803;47.916;8.074;2022-12-01T01:04:36;8.50;;;4.80;;
5559;SDS011;2803;47.916;8.074;2022-12-01T01:07:03;8.93;;;5.53;;
5559;SDS011;2803;47.916;8.074;2022-12-01T01:09:30;10.57;;;5.30;;
5559;SDS011;2803;47.916;8.074;2022-12-01T01:11:58;12.20;;;6.00;;
5559;SDS011;2803;47.916;8.074;2022-12-01T01:14:24;6.83;;;4.53;;
5559;SDS011;2803;47.916;8.074;2022-12-01T01:16:51;11.53;;;5.47;;
5559;SDS011;2803;47.916;8.074;2022-12-01T01:19:20;7.07;;;4.73;;
5559;SDS011;2803;47.916;8.074;2022-12-01T01:21:48;9.07;;;5.10;;
5559;SDS011;2803;47.916;8.074;2022-12-01T01:24:15;13.53;;;5.40;;
5559;SDS011;2803;47.916;8.074;2022-12-01T01:26:41;8.83;;;5.10;;
5559;SDS011;2803;47.916;8.074;2022-12-01T01:29:08;8.80;;;5.23;;
5559;SDS011;2803;47.916;8.074;2022-12-01T01:31:35;9.33;;;5.10;;
5559;SDS011;2803;47.916;8.074;2022-12-01T01:34:02;8.17;;;4.90;;
5559;SDS011;2803;47.916;8.074;2022-12-01T01:36:29;8.67;;;4.70;;
5559;SDS011;2803;47.916;8.074;2022-12-01T01:38:57;7.30;;;5.00;;
5559;SDS011;2803;47.916;8.074;2022-12-01T01:41:25;8.57;;;4.63;;
5559;SDS011;2803;47.916;8.074;2022-12-01T01:43:53;7.07;;;4.43;;
5559;SDS011;2803;47.916;8.074;2022-12-01T01:46:22;9.60;;;4.93;;
5559;SDS011;2803;47.916;8.074;2022-12-01T01:48:51;11.03;;;5.40;;
5559;SDS011;2803;47.916;8.074;2022-12-01T01:51:21;9.00;;;4.87;;
5559;SDS011;2803;47.916;8.074;2022-12-01T01:53:52;8.17;;;4.80;;
5559;SDS011;2803;47.916;8.074;2022-12-01T01:56:24;10.30;;;4.67;;
5559;SDS011;2803;47.916;8.074;2022-12-01T01:58:51;6.90;;;4.20;;
5559;SDS011;2803;47.916;8.074;2022-12-01T02:01:18;8.70;;;4.83;;
5559;SDS011;2803;47.916;8.074;2022-12-01T02:03:45;8.53;;;5.00;;
5559;SDS011;2803;47.916;8.074;2022-12-01T02:06:13;9.33;;;5.70;;
5559;SDS011;2803;47.916;8.074;2022-12-01T02:08:40;14.10;;;5.43;;
5559;SDS011;2803;47.916;8.074;2022-12-01T02:11:13;11.07;;;6.13;;
5559;SDS011;2803;47.916;8.074;2022-12-01T02:13:56;9.07;;;5.33;;
5559;SDS011;2803;47.916;8.074;2022-12-01T02:16:35;10.00;;;5.70;;
5559;SDS011;2803;47.916;8.074;2022-12-01T02:19:10;10.17;;;5.30;;
5559;SDS011;2803;47.916;8.074;2022-12-01T02:22:09;10.53;;;5.70;;
5559;SDS011;2803;47.916;8.074;2022-12-01T02:24:49;10.23;;;5.50;;
5559;SDS011;2803;47.916;8.074;2022-12-01T02:27:27;11.37;;;5.87;;
5559;SDS011;2803;47.916;8.074;2022-12-01T02:30:09;10.80;;;5.40;;
5559;SDS011;2803;47.916;8.074;2022-12-01T02:35:28;10.10;;;5.40;;
5559;SDS011;2803;47.916;8.074;2022-12-01T02:38:04;6.77;;;4.40;;
5559;SDS011;2803;47.916;8.074;2022-12-01T02:40:38;10.60;;;5.80;;
5559;SDS011;2803;47.916;8.074;2022-12-01T02:43:09;10.67;;;6.30;;
5559;SDS011;2803;47.916;8.074;2022-12-01T02:45:44;12.33;;;5.77;;
5559;SDS011;2803;47.916;8.074;2022-12-01T02:48:17;12.23;;;5.63;;
5559;SDS011;2803;47.916;8.074;2022-12-01T02:50:48;10.43;;;5.63;;
5559;SDS011;2803;47.916;8.074;2022-12-01T02:53:17;8.90;;;5.47;;
5559;SDS011;2803;47.916;8.074;2022-12-01T02:55:45;10.43;;;5.47;;
5559;SDS011;2803;47.916;8.074;2022-12-01T02:58:13;11.27;;;6.13;;
5559;SDS011;2803;47.916;8.074;2022-12-01T03:00:40;12.47;;;6.20;;
5559;SDS011;2803;47.916;8.074;2022-12-01T03:06:07;9.63;;;5.40;;
5559;SDS011;2803;47.916;8.074;2022-12-01T03:08:41;9.60;;;4.97;;
5559;SDS011;2803;47.916;8.074;2022-12-01T03:11:15;7.00;;;4.60;;
5559;SDS011;2803;47.916;8.074;2022-12-01T03:13:53;8.67;;;5.37;;
5559;SDS011;2803;47.916;8.074;2022-12-01T03:16:32;9.97;;;5.57;;
5559;SDS011;2803;47.916;8.074;2022-12-01T03:19:06;10.33;;;5.87;;
5559;SDS011;2803;47.916;8.074;2022-12-01T03:21:38;8.80;;;5.17;;
5559;SDS011;2803;47.916;8.074;2022-12-01T03:24:09;10.50;;;5.87;;
5559;SDS011;2803;47.916;8.074;2022-12-01T03:26:40;12.80;;;6.87;;
5559;SDS011;2803;47.916;8.074;2022-12-01T03:29:10;9.63;;;5.70;;
5559;SDS011;2803;47.916;8.074;2022-12-01T03:31:40;11.70;;;6.60;;
5559;SDS011;2803;47.916;8.074;2022-12-01T03:34:12;10.17;;;6.03;;
5559;SDS011;2803;47.916;8.074;2022-12-01T03:36:42;13.70;;;6.53;;
5559;SDS011;2803;47.916;8.074;2022-12-01T03:39:13;11.20;;;6.77;;
5559;SDS011;2803;47.916;8.074;2022-12-01T03:41:47;10.57;;;5.90;;
5559;SDS011;2803;47.916;8.074;2022-12-01T03:44:19;10.67;;;6.47;;
5559;SDS011;2803;47.916;8.074;2022-12-01T03:46:50;15.97;;;6.47;;
5559;SDS011;2803;47.916;8.074;2022-12-01T03:49:22;11.47;;;6.90;;
5559;SDS011;2803;47.916;8.074;2022-12-01T03:51:54;12.77;;;5.90;;
5559;SDS011;2803;47.916;8.074;2022-12-01T03:54:32;12.33;;;6.67;;
5559;SDS011;2803;47.916;8.074;2022-12-01T03:57:09;16.33;;;6.83;;
5559;SDS011;2803;47.916;8.074;2022-12-01T03:59:42;18.57;;;6.80;;
5559;SDS011;2803;47.916;8.074;2022-12-01T04:02:10;10.53;;;5.90;;
5559;SDS011;2803;47.916;8.074;2022-12-01T04:04:38;10.03;;;5.73;;
5559;SDS011;2803;47.916;8.074;2022-12-01T04:07:05;11.20;;;5.30;;
5559;SDS011;2803;47.916;8.074;2022-12-01T04:09:37;16.83;;;6.73;;
5559;SDS011;2803;47.916;8.074;2022-12-01T04:12:04;11.30;;;6.10;;
5559;SDS011;2803;47.916;8.074;2022-12-01T04:14:45;9.73;;;5.30;;
5559;SDS011;2803;47.916;8.074;2022-12-01T04:17:11;9.13;;;5.93;;
5559;SDS011;2803;47.916;8.074;2022-12-01T04:19:39;9.67;;;5.87;;
5559;SDS011;2803;47.916;8.074;2022-12-01T04:22:06;11.23;;;5.80;;
5559;SDS011;2803;47.916;8.074;2022-12-01T04:24:32;10.27;;;5.67;;
5559;SDS011;2803;47.916;8.074;2022-12-01T04:26:59;11.23;;;6.83;;
5559;SDS011;2803;47.916;8.074;2022-12-01T04:29:26;10.60;;;6.03;;
5559;SDS011;2803;47.916;8.074;2022-12-01T04:31:52;10.67;;;6.77;;
5559;SDS011;2803;47.916;8.074;2022-12-01T04:34:19;13.37;;;7.40;;
5559;SDS011;2803;47.916;8.074;2022-12-01T04:36:47;14.10;;;7.37;;
5559;SDS011;2803;47.916;8.074;2022-12-01T04:39:13;13.73;;;7.30;;
5559;SDS011;2803;47.916;8.074;2022-12-01T04:41:40;12.43;;;7.27;;
5559;SDS011;2803;47.916;8.074;2022-12-01T04:44:08;12.97;;;7.23;;
5559;SDS011;2803;47.916;8.074;2022-12-01T04:46:34;15.27;;;8.23;;
5559;SDS011;2803;47.916;8.074;2022-12-01T04:49:01;13.30;;;7.90;;
5559;SDS011;2803;47.916;8.074;2022-12-01T04:51:28;13.73;;;7.13;;
5559;SDS011;2803;47.916;8.074;2022-12-01T04:53:56;17.60;;;7.30;;
5559;SDS011;2803;47.916;8.074;2022-12-01T04:56:22;14.40;;;6.80;;
5559;SDS011;2803;47.916;8.074;2022-12-01T04:58:49;14.20;;;7.60;;
5559;SDS011;2803;47.916;8.074;2022-12-01T05:01:16;16.20;;;8.97;;
5559;SDS011;2803;47.916;8.074;2022-12-01T05:03:44;13.97;;;7.63;;
5559;SDS011;2803;47.916;8.074;2022-12-01T05:06:14;15.37;;;8.40;;
5559;SDS011;2803;47.916;8.074;2022-12-01T05:08:42;15.77;;;8.00;;
5559;SDS011;2803;47.916;8.074;2022-12-01T05:11:10;14.70;;;8.13;;
5559;SDS011;2803;47.916;8.074;2022-12-01T05:13:38;15.70;;;8.67;;
5559;SDS011;2803;47.916;8.074;2022-12-01T05:16:07;17.77;;;8.90;;
5559;SDS011;2803;47.916;8.074;2022-12-01T05:18:35;17.97;;;9.27;;
5559;SDS011;2803;47.916;8.074;2022-12-01T05:21:01;15.07;;;7.70;;
5559;SDS011;2803;47.916;8.074;2022-12-01T05:23:29;18.50;;;9.40;;
5559;SDS011;2803;47.916;8.074;2022-12-01T05:25:57;13.87;;;7.83;;
5559;SDS011;2803;47.916;8.074;2022-12-01T05:28:25;19.30;;;9.57;;
5559;SDS011;2803;47.916;8.074;2022-12-01T05:30:52;15.80;;;8.60;;
5559;SDS011;2803;47.916;8.074;2022-12-01T05:33:19;15.00;;;8.20;;
5559;SDS011;2803;47.916;8.074;2022-12-01T05:35:46;16.23;;;8.97;;
5559;SDS011;2803;47.916;8.074;2022-12-01T05:38:13;15.13;;;7.33;;
5559;SDS011;2803;47.916;8.074;2022-12-01T05:40:40;16.80;;;9.10;;
5559;SDS011;2803;47.916;8.074;2022-12-01T05:43:07;18.77;;;9.27;;
5559;SDS011;2803;47.916;8.074;2022-12-01T05:45:36;15.43;;;7.80;;
5559;SDS011;2803;47.916;8.074;2022-12-01T05:48:02;14.50;;;8.60;;
5559;SDS011;2803;47.916;8.074;2022-12-01T05:50:30;13.67;;;8.23;;
5559;SDS011;2803;47.916;8.074;2022-12-01T05:52:58;16.07;;;8.20;;
5559;SDS011;2803;47.916;8.074;2022-12-01T05:55:24;17.17;;;8.80;;
5559;SDS011;2803;47.916;8.074;2022-12-01T05:57:51;15.70;;;8.70;;
5559;SDS011;2803;47.916;8.074;2022-12-01T06:00:18;17.57;;;9.70;;
5559;SDS011;2803;47.916;8.074;2022-12-01T06:02:46;14.33;;;8.10;;
5559;SDS011;2803;47.916;8.074;2022-12-01T06:05:13;17.13;;;9.70;;
5559;SDS011;2803;47.916;8.074;2022-12-01T06:07:40;16.03;;;8.13;;
5559;SDS011;2803;47.916;8.074;2022-12-01T06:10:07;19.43;;;9.97;;
5559;SDS011;2803;47.916;8.074;2022-12-01T06:12:35;19.40;;;9.90;;
5559;SDS011;2803;47.916;8.074;2022-12-01T06:15:02;17.37;;;9.80;;
5559;SDS011;2803;47.916;8.074;2022-12-01T06:17:30;20.27;;;9.70;;
5559;SDS011;2803;47.916;8.074;2022-12-01T06:19:58;18.37;;;10.67;;
5559;SDS011;2803;47.916;8.074;2022-12-01T06:22:25;18.83;;;10.73;;
5559;SDS011;2803;47.916;8.074;2022-12-01T06:24:51;19.40;;;10.87;;
5559;SDS011;2803;47.916;8.074;2022-12-01T06:27:18;22.77;;;12.07;;
5559;SDS011;2803;47.916;8.074;2022-12-01T06:29:44;20.60;;;12.00;;
5559;SDS011;2803;47.916;8.074;2022-12-01T06:32:13;26.33;;;11.80;;
5559;SDS011;2803;47.916;8.074;2022-12-01T06:34:39;25.47;;;12.10;;
5559;SDS011;2803;47.916;8.074;2022-12-01T06:37:08;23.37;;;13.50;;
5559;SDS011;2803;47.916;8.074;2022-12-01T06:39:35;24.80;;;13.63;;
5559;SDS011;2803;47.916;8.074;2022-12-01T06:42:02;26.97;;;13.40;;
5559;SDS011;2803;47.916;8.074;2022-12-01T06:44:29;25.53;;;13.17;;
5559;SDS011;2803;47.916;8.074;2022-12-01T06:46:55;31.23;;;13.70;;
5559;SDS011;2803;47.916;8.074;2022-12-01T06:49:22;32.37;;;16.40;;
5559;SDS011;2803;47.916;8.074;2022-12-01T06:51:49;28.63;;;14.63;;
5559;SDS011;2803;47.916;8.074;2022-12-01T06:54:17;28.93;;;14.80;;
5559;SDS011;2803;47.916;8.074;2022-12-01T06:56:45;31.30;;;14.97;;
5559;SDS011;2803;47.916;8.074;2022-12-01T06:59:12;28.27;;;13.80;;
5559;SDS011;2803;47.916;8.074;2022-12-01T07:01:38;25.40;;;13.63;;
5559;SDS011;2803;47.916;8.074;2022-12-01T07:04:05;27.23;;;12.73;;
5559;SDS011;2803;47.916;8.074;2022-12-01T07:06:31;29.83;;;14.80;;
5559;SDS011;2803;47.916;8.074;2022-12-01T07:08:58;26.93;;;13.43;;
5559;SDS011;2803;47.916;8.074;2022-12-01T07:11:26;29.67;;;15.40;;
5559;SDS011;2803;47.916;8.074;2022-12-01T07:13:56;31.50;;;14.03;;
5559;SDS011;2803;47.916;8.074;2022-12-01T07:16:23;30.67;;;15.10;;
5559;SDS011;2803;47.916;8.074;2022-12-01T07:18:50;28.27;;;13.93;;
5559;SDS011;2803;47.916;8.074;2022-12-01T07:21:16;24.87;;;12.57;;
5559;SDS011;2803;47.916;8.074;2022-12-01T07:23:43;33.40;;;14.60;;
5559;SDS011;2803;47.916;8.074;2022-12-01T07:26:10;30.23;;;14.43;;
5559;SDS011;2803;47.916;8.074;2022-12-01T07:28:40;38.87;;;17.23;;
5559;SDS011;2803;47.916;8.074;2022-12-01T07:31:07;32.93;;;14.97;;
5559;SDS011;2803;47.916;8.074;2022-12-01T07:33:35;29.90;;;13.70;;
5559;SDS011;2803;47.916;8.074;2022-12-01T07:36:03;35.60;;;14.80;;
5559;SDS011;2803;47.916;8.074;2022-12-01T07:38:31;33.90;;;13.97;;
5559;SDS011;2803;47.916;8.074;2022-12-01T07:41:01;30.60;;;14.43;;
5559;SDS011;2803;47.916;8.074;2022-12-01T07:43:29;32.43;;;14.23;;
5559;SDS011;2803;47.916;8.074;2022-12-01T07:46:01;36.73;;;14.77;;
5559;SDS011;2803;47.916;8.074;2022-12-01T07:48:30;33.67;;;14.40;;
5559;SDS011;2803;47.916;8.074;2022-12-01T07:50:57;35.23;;;14.73;;
5559;SDS011;2803;47.916;8.074;2022-12-01T07:53:23;33.87;;;14.20;;
5559;SDS011;2803;47.916;8.074;2022-12-01T07:55:50;39.00;;;17.33;;
5559;SDS011;2803;47.916;8.074;2022-12-01T07:58:16;40.50;;;16.77;;
5559;SDS011;2803;47.916;8.074;2022-12-01T08:00:43;32.33;;;14.20;;
5559;SDS011;2803;47.916;8.074;2022-12-01T08:03:11;33.53;;;14.10;;
5559;SDS011;2803;47.916;8.074;2022-12-01T08:05:38;34.67;;;15.10;;
5559;SDS011;2803;47.916;8.074;2022-12-01T08:08:04;40.50;;;14.43;;
5559;SDS011;2803;47.916;8.074;2022-12-01T08:10:31;42.43;;;16.80;;
5559;SDS011;2803;47.916;8.074;2022-12-01T08:12:58;34.00;;;14.77;;
5559;SDS011;2803;47.916;8.074;2022-12-01T08:15:24;31.90;;;12.67;;
5559;SDS011;2803;47.916;8.074;2022-12-01T08:17:51;39.50;;;15.97;;
5559;SDS011;2803;47.916;8.074;2022-12-01T08:20:19;39.07;;;16.63;;
5559;SDS011;2803;47.916;8.074;2022-12-01T08:22:45;33.17;;;14.93;;
5559;SDS011;2803;47.916;8.074;2022-12-01T08:25:12;35.57;;;14.70;;
5559;SDS011;2803;47.916;8.074;2022-12-01T08:27:39;39.40;;;15.80;;
5559;SDS011;2803;47.916;8.074;2022-12-01T08:30:06;41.63;;;16.87;;
5559;SDS011;2803;47.916;8.074;2022-12-01T08:32:33;42.43;;;17.33;;
5559;SDS011;2803;47.916;8.074;2022-12-01T08:35:00;39.20;;;16.60;;
5559;SDS011;2803;47.916;8.074;2022-12-01T08:37:27;38.00;;;15.43;;
5559;SDS011;2803;47.916;8.074;2022-12-01T08:39:54;40.40;;;15.20;;
5559;SDS011;2803;47.916;8.074;2022-12-01T08:42:21;35.67;;;14.87;;
5559;SDS011;2803;47.916;8.074;2022-12-01T08:44:47;37.00;;;15.10;;
5559;SDS011;2803;47.916;8.074;2022-12-01T08:47:14;29.70;;;13.50;;
5559;SDS011;2803;47.916;8.074;2022-12-01T08:49:40;29.23;;;13.47;;
5559;SDS011;2803;47.916;8.074;2022-12-01T08:52:08;35.07;;;15.73;;
5559;SDS011;2803;47.916;8.074;2022-12-01T08:54:36;37.80;;;15.33;;
5559;SDS011;2803;47.916;8.074;2022-12-01T08:57:02;42.37;;;16.40;;
5559;SDS011;2803;47.916;8.074;2022-12-01T08:59:29;37.43;;;16.17;;
5559;SDS011;2803;47.916;8.074;2022-12-01T09:01:56;35.50;;;15.07;;
5559;SDS011;2803;47.916;8.074;2022-12-01T09:04:23;41.77;;;17.10;;
5559;SDS011;2803;47.916;8.074;2022-12-01T09:06:51;37.67;;;15.23;;
5559;SDS011;2803;47.916;8.074;2022-12-01T09:09:20;32.13;;;14.93;;
5559;SDS011;2803;47.916;8.074;2022-12-01T09:11:49;42.87;;;16.20;;
5559;SDS011;2803;47.916;8.074;2022-12-01T09:14:17;41.93;;;15.93;;
5559;SDS011;2803;47.916;8.074;2022-12-01T09:16:45;34.97;;;15.10;;
5559;SDS011;2803;47.916;8.074;2022-12-01T09:19:13;36.87;;;15.50;;
5559;SDS011;2803;47.916;8.074;2022-12-01T09:21:40;41.10;;;15.83;;
5559;SDS011;2803;47.916;8.074;2022-12-01T09:24:09;42.23;;;17.07;;
5559;SDS011;2803;47.916;8.074;2022-12-01T09:26:37;37.10;;;15.77;;
5559;SDS011;2803;47.916;8.074;2022-12-01T09:29:05;39.33;;;16.70;;
5559;SDS011;2803;47.916;8.074;2022-12-01T09:31:33;34.93;;;15.87;;
5559;SDS011;2803;47.916;8.074;2022-12-01T09:34:02;39.40;;;16.30;;
5559;SDS011;2803;47.916;8.074;2022-12-01T09:36:30;32.97;;;14.80;;
5559;SDS011;2803;47.916;8.074;2022-12-01T09:38:58;37.60;;;14.77;;
5559;SDS011;2803;47.916;8.074;2022-12-01T09:41:26;36.40;;;14.83;;
5559;SDS011;2803;47.916;8.074;2022-12-01T09:43:57;33.23;;;14.90;;
5559;SDS011;2803;47.916;8.074;2022-12-01T09:46:33;36.67;;;13.73;;
5559;SDS011;2803;47.916;8.074;2022-12-01T09:49:05;28.63;;;12.10;;
5559;SDS011;2803;47.916;8.074;2022-12-01T09:51:38;29.83;;;12.47;;
5559;SDS011;2803;47.916;8.074;2022-12-01T09:54:05;23.50;;;11.07;;
5559;SDS011;2803;47.916;8.074;2022-12-01T09:56:38;20.57;;;10.47;;
5559;SDS011;2803;47.916;8.074;2022-12-01T09:59:12;26.53;;;10.73;;
5559;SDS011;2803;47.916;8.074;2022-12-01T10:01:45;20.50;;;10.10;;
5559;SDS011;2803;47.916;8.074;2022-12-01T10:04:20;18.00;;;8.57;;
5559;SDS011;2803;47.916;8.074;2022-12-01T10:06:52;20.63;;;9.37;;
5559;SDS011;2803;47.916;8.074;2022-12-01T10:09:24;21.27;;;10.30;;
5559;SDS011;2803;47.916;8.074;2022-12-01T10:11:59;16.07;;;8.10;;
5559;SDS011;2803;47.916;8.074;2022-12-01T10:14:32;16.80;;;8.70;;
5559;SDS011;2803;47.916;8.074;2022-12-01T10:17:04;13.80;;;6.57;;
5559;SDS011;2803;47.916;8.074;2022-12-01T10:19:39;13.40;;;6.93;;
5559;SDS011;2803;47.916;8.074;2022-12-01T10:22:15;17.87;;;8.30;;
5559;SDS011;2803;47.916;8.074;2022-12-01T10:24:55;12.43;;;6.87;;
5559;SDS011;2803;47.916;8.074;2022-12-01T10:27:34;14.30;;;7.17;;
5559;SDS011;2803;47.916;8.074;2022-12-01T10:30:09;17.50;;;6.40;;
5559;SDS011;2803;47.916;8.074;2022-12-01T10:32:43;11.57;;;6.63;;
5559;SDS011;2803;47.916;8.074;2022-12-01T10:35:14;18.03;;;7.27;;
5559;SDS011;2803;47.916;8.074;2022-12-01T10:37:42;10.03;;;5.87;;
5559;SDS011;2803;47.916;8.074;2022-12-01T10:40:12;12.80;;;6.10;;
5559;SDS011;2803;47.916;8.074;2022-12-01T10:42:41;11.10;;;6.20;;
5559;SDS011;2803;47.916;8.074;2022-12-01T10:45:12;13.07;;;6.20;;
5559;SDS011;2803;47.916;8.074;2022-12-01T10:50:40;11.53;;;6.57;;
5559;SDS011;2803;47.916;8.074;2022-12-01T10:53:19;13.30;;;6.27;;
5559;SDS011;2803;47.916;8.074;2022-12-01T10:55:57;12.70;;;6.23;;
5559;SDS011;2803;47.916;8.074;2022-12-01T10:58:27;14.77;;;7.33;;
5559;SDS011;2803;47.916;8.074;2022-12-01T11:00:58;13.07;;;6.30;;
5559;SDS011;2803;47.916;8.074;2022-12-01T11:03:29;10.90;;;5.47;;
5559;SDS011;2803;47.916;8.074;2022-12-01T11:05:59;10.40;;;6.07;;
5559;SDS011;2803;47.916;8.074;2022-12-01T11:08:30;12.40;;;6.20;;
5559;SDS011;2803;47.916;8.074;2022-12-01T11:11:01;13.23;;;6.50;;
5559;SDS011;2803;47.916;8.074;2022-12-01T11:13:29;12.50;;;6.40;;
5559;SDS011;2803;47.916;8.074;2022-12-01T11:15:59;13.40;;;6.50;;
5559;SDS011;2803;47.916;8.074;2022-12-01T11:18:28;11.90;;;6.27;;
5559;SDS011;2803;47.916;8.074;2022-12-01T11:21:07;12.47;;;6.60;;
5559;SDS011;2803;47.916;8.074;2022-12-01T11:23:37;11.27;;;6.23;;
5559;SDS011;2803;47.916;8.074;2022-12-01T11:26:10;9.70;;;5.60;;
5559;SDS011;2803;47.916;8.074;2022-12-01T11:28:41;11.50;;;5.87;;
5559;SDS011;2803;47.916;8.074;2022-12-01T11:31:16;13.27;;;6.50;;
5559;SDS011;2803;47.916;8.074;2022-12-01T11:33:45;11.33;;;5.83;;
5559;SDS011;2803;47.916;8.074;2022-12-01T11:36:20;11.27;;;6.10;;
5559;SDS011;2803;47.916;8.074;2022-12-01T11:38:53;16.67;;;5.80;;
5559;SDS011;2803;47.916;8.074;2022-12-01T11:41:24;13.40;;;6.17;;
5559;SDS011;2803;47.916;8.074;2022-12-01T11:43:54;13.57;;;6.13;;
5559;SDS011;2803;47.916;8.074;2022-12-01T11:46:26;12.17;;;6.00;;
5559;SDS011;2803;47.916;8.074;2022-12-01T11:48:57;15.03;;;6.87;;
5559;SDS011;2803;47.916;8.074;2022-12-01T11:51:27;11.57;;;5.87;;
5559;SDS011;2803;47.916;8.074;2022-12-01T11:54:05;14.23;;;6.40;;
5559;SDS011;2803;47.916;8.074;2022-12-01T11:56:38;17.10;;;6.73;;
5559;SDS011;2803;47.916;8.074;2022-12-01T11:59:09;12.90;;;7.30;;
5559;SDS011;2803;47.916;8.074;2022-12-01T12:01:39;15.00;;;6.70;;
5559;SDS011;2803;47.916;8.074;2022-12-01T12:04:25;13.87;;;7.90;;
5559;SDS011;2803;47.916;8.074;2022-12-01T12:07:07;14.20;;;7.20;;
5559;SDS011;2803;47.916;8.074;2022-12-01T12:09:44;18.83;;;7.63;;
5559;SDS011;2803;47.916;8.074;2022-12-01T12:12:23;14.83;;;8.20;;
5559;SDS011;2803;47.916;8.074;2022-12-01T12:15:01;17.23;;;7.77;;
5559;SDS011;2803;47.916;8.074;2022-12-01T12:17:41;16.83;;;7.90;;
5559;SDS011;2803;47.916;8.074;2022-12-01T12:20:19;17.63;;;9.10;;
5559;SDS011;2803;47.916;8.074;2022-12-01T12:22:57;16.70;;;9.30;;
5559;SDS011;2803;47.916;8.074;2022-12-01T12:25:40;15.13;;;7.50;;
5559;SDS011;2803;47.916;8.074;2022-12-01T12:28:18;15.83;;;7.73;;
5559;SDS011;2803;47.916;8.074;2022-12-01T12:31:00;13.07;;;6.40;;
5559;SDS011;2803;47.916;8.074;2022-12-01T12:33:38;14.30;;;7.77;;
5559;SDS011;2803;47.916;8.074;2022-12-01T12:36:18;13.37;;;6.40;;
5559;SDS011;2803;47.916;8.074;2022-12-01T12:38:59;10.90;;;5.47;;
5559;SDS011;2803;47.916;8.074;2022-12-01T12:41:32;9.80;;;5.20;;
5559;SDS011;2803;47.916;8.074;2022-12-01T12:44:07;14.33;;;6.40;;
5559;SDS011;2803;47.916;8.074;2022-12-01T12:46:50;14.27;;;6.47;;
5559;SDS011;2803;47.916;8.074;2022-12-01T12:49:26;11.10;;;5.30;;
5559;SDS011;2803;47.916;8.074;2022-12-01T12:52:01;9.90;;;4.77;;
5559;SDS011;2803;47.916;8.074;2022-12-01T12:54:36;9.70;;;5.60;;
5559;SDS011;2803;47.916;8.074;2022-12-01T12:57:12;8.87;;;5.13;;
5559;SDS011;2803;47.916;8.074;2022-12-01T12:59:47;11.10;;;5.63;;
5559;SDS011;2803;47.916;8.074;2022-12-01T13:02:19;10.33;;;5.83;;
5559;SDS011;2803;47.916;8.074;2022-12-01T13:04:51;10.30;;;5.00;;
5559;SDS011;2803;47.916;8.074;2022-12-01T13:07:30;10.40;;;5.50;;
5559;SDS011;2803;47.916;8.074;2022-12-01T13:10:04;8.13;;;4.70;;
5559;SDS011;2803;47.916;8.074;2022-12-01T13:12:35;7.93;;;4.50;;
5559;SDS011;2803;47.916;8.074;2022-12-01T13:15:12;6.90;;;4.13;;
5559;SDS011;2803;47.916;8.074;2022-12-01T13:17:42;7.80;;;4.77;;
5559;SDS011;2803;47.916;8.074;2022-12-01T13:20:12;8.63;;;4.70;;
5559;SDS011;2803;47.916;8.074;2022-12-01T13:22:40;8.13;;;4.80;;
5559;SDS011;2803;47.916;8.074;2022-12-01T13:25:10;11.47;;;4.60;;
5559;SDS011;2803;47.916;8.074;2022-12-01T13:27:39;13.27;;;5.37;;
5559;SDS011;2803;47.916;8.074;2022-12-01T13:30:15;8.33;;;5.10;;
5559;SDS011;2803;47.916;8.074;2022-12-01T13:32:43;9.93;;;5.60;;
5559;SDS011;2803;47.916;8.074;2022-12-01T13:35:19;11.50;;;5.97;;
5559;SDS011;2803;47.916;8.074;2022-12-01T13:37:49;9.67;;;5.50;;
5559;SDS011;2803;47.916;8.074;2022-12-01T13:40:21;12.30;;;5.93;;
5559;SDS011;2803;47.916;8.074;2022-12-01T13:42:53;11.20;;;5.60;;
5559;SDS011;2803;47.916;8.074;2022-12-01T13:45:22;9.10;;;5.23;;
5559;SDS011;2803;47.916;8.074;2022-12-01T13:47:50;11.53;;;5.43;;
5559;SDS011;2803;47.916;8.074;2022-12-01T13:53:11;12.90;;;5.93;;
5559;SDS011;2803;47.916;8.074;2022-12-01T13:55:54;12.27;;;6.17;;
5559;SDS011;2803;47.916;8.074;2022-12-01T13:58:24;12.27;;;6.53;;
5559;SDS011;2803;47.916;8.074;2022-12-01T14:04:19;12.00;;;7.13;;
5559;SDS011;2803;47.916;8.074;2022-12-01T14:06:49;13.07;;;6.33;;
5559;SDS011;2803;47.916;8.074;2022-12-01T14:09:45;9.53;;;5.10;;
5559;SDS011;2803;47.916;8.074;2022-12-01T14:12:14;11.07;;;5.47;;
5559;SDS011;2803;47.916;8.074;2022-12-01T14:14:45;12.33;;;6.50;;
5559;SDS011;2803;47.916;8.074;2022-12-01T14:17:23;12.70;;;6.40;;
5559;SDS011;2803;47.916;8.074;2022-12-01T14:19:51;14.20;;;7.27;;
5559;SDS011;2803;47.916;8.074;2022-12-01T14:25:05;14.17;;;7.50;;
5559;SDS011;2803;47.916;8.074;2022-12-01T14:27:47;13.50;;;7.40;;
5559;SDS011;2803;47.916;8.074;2022-12-01T14:36:11;13.03;;;7.10;;
5559;SDS011;2803;47.916;8.074;2022-12-01T14:38:45;13.67;;;7.10;;
5559;SDS011;2803;47.916;8.074;2022-12-01T14:41:16;14.80;;;6.87;;
5559;SDS011;2803;47.916;8.074;2022-12-01T14:43:47;16.43;;;7.20;;
5559;SDS011;2803;47.916;8.074;2022-12-01T14:46:31;13.30;;;6.90;;
5559;SDS011;2803;47.916;8.074;2022-12-01T14:49:07;11.90;;;6.50;;
5559;SDS011;2803;47.916;8.074;2022-12-01T14:51:39;12.37;;;7.47;;
5559;SDS011;2803;47.916;8.074;2022-12-01T14:54:13;13.00;;;7.13;;
5559;SDS011;2803;47.916;8.074;2022-12-01T14:56:44;12.80;;;6.17;;
5559;SDS011;2803;47.916;8.074;2022-12-01T14:59:13;12.43;;;6.37;;
5559;SDS011;2803;47.916;8.074;2022-12-01T15:01:44;13.20;;;6.23;;
5559;SDS011;2803;47.916;8.074;2022-12-01T15:04:13;14.50;;;7.13;;
5559;SDS011;2803;47.916;8.074;2022-12-01T15:06:40;12.53;;;6.30;;
5559;SDS011;2803;47.916;8.074;2022-12-01T15:09:08;11.10;;;6.70;;
5559;SDS011;2803;47.916;8.074;2022-12-01T15:11:41;15.70;;;6.70;;
5559;SDS011;2803;47.916;8.074;2022-12-01T15:14:19;13.40;;;6.80;;
5559;SDS011;2803;47.916;8.074;2022-12-01T15:16:48;15.20;;;7.43;;
5559;SDS011;2803;47.916;8.074;2022-12-01T15:19:27;13.40;;;6.90;;
5559;SDS011;2803;47.916;8.074;2022-12-01T15:21:56;14.10;;;6.33;;
5559;SDS011;2803;47.916;8.074;2022-12-01T15:24:25;12.77;;;7.00;;
5559;SDS011;2803;47.916;8.074;2022-12-01T15:26:55;14.57;;;7.23;;
5559;SDS011;2803;47.916;8.074;2022-12-01T15:29:23;15.10;;;7.50;;
5559;SDS011;2803;47.916;8.074;2022-12-01T15:31:52;12.37;;;6.33;;
5559;SDS011;2803;47.916;8.074;2022-12-01T15:34:22;20.83;;;7.63;;
5559;SDS011;2803;47.916;8.074;2022-12-01T15:36:51;14.30;;;7.13;;
5559;SDS011;2803;47.916;8.074;2022-12-01T15:39:19;15.00;;;7.07;;
5559;SDS011;2803;47.916;8.074;2022-12-01T15:41:52;16.03;;;6.77;;